sensor_id;sensor_type;location;lat;lon;timestamp;temperature;humidity
9885;DHT22;4981;50.966;4.842;2023-10-08T05:21:02;15.10;1.00
9885;DHT22;4981;50.966;4.842;2023-10-08T05:23:45;15.00;1.00
9885;DHT22;4981;50.966;4.842;2023-10-08T05:26:37;14.90;1.00
9885;DHT22;4981;50.966;4.842;2023-10-08T05:29:10;15.00;1.00
9885;DHT22;4981;50.966;4.842;2023-10-08T05:32:15;15.00;1.00
9885;DHT22;4981;50.966;4.842;2023-10-08T05:35:00;15.00;1.00
9885;DHT22;4981;50.966;4.842;2023-10-08T05:37:42;14.90;1.00
9885;DHT22;4981;50.966;4.842;2023-10-08T05:40:13;14.80;1.00
9885;DHT22;4981;50.966;4.842;2023-10-08T05:43:03;14.80;1.00
9885;DHT22;4981;50.966;4.842;2023-10-08T05:45:48;14.80;1.00
9885;DHT22;4981;50.966;4.842;2023-10-08T05:48:38;14.80;1.00
9885;DHT22;4981;50.966;4.842;2023-10-08T05:51:11;14.70;1.00
9885;DHT22;4981;50.966;4.842;2023-10-08T05:53:40;14.80;1.00
9885;DHT22;4981;50.966;4.842;2023-10-08T05:56:10;14.70;1.00
9885;DHT22;4981;50.966;4.842;2023-10-08T05:58:53;14.80;1.00
9885;DHT22;4981;50.966;4.842;2023-10-08T06:01:40;13.80;1.00
9885;DHT22;4981;50.966;4.842;2023-10-08T06:04:07;14.70;1.00
9885;DHT22;4981;50.966;4.842;2023-10-08T06:07:08;14.70;1.00
9885;DHT22;4981;50.966;4.842;2023-10-08T06:09:44;14.70;1.00
9885;DHT22;4981;50.966;4.842;2023-10-08T06:12:27;14.60;1.00
9885;DHT22;4981;50.966;4.842;2023-10-08T06:14:55;14.50;1.00
9885;DHT22;4981;50.966;4.842;2023-10-08T06:17:35;14.60;1.00
9885;DHT22;4981;50.966;4.842;2023-10-08T06:20:22;14.60;1.00
9885;DHT22;4981;50.966;4.842;2023-10-08T06:22:52;14.70;1.00
9885;DHT22;4981;50.966;4.842;2023-10-08T06:25:27;14.70;1.00
9885;DHT22;4981;50.966;4.842;2023-10-08T06:27:54;14.70;1.00
9885;DHT22;4981;50.966;4.842;2023-10-08T06:30:23;14.80;1.00
9885;DHT22;4981;50.966;4.842;2023-10-08T06:32:55;14.90;1.00
9885;DHT22;4981;50.966;4.842;2023-10-08T06:35:22;14.80;1.00
9885;DHT22;4981;50.966;4.842;2023-10-08T06:37:53;14.90;1.00
9885;DHT22;4981;50.966;4.842;2023-10-08T06:40:26;14.90;1.00
9885;DHT22;4981;50.966;4.842;2023-10-08T06:43:09;15.00;1.00
9885;DHT22;4981;50.966;4.842;2023-10-08T06:45:43;15.00;1.00
9885;DHT22;4981;50.966;4.842;2023-10-08T06:48:13;15.00;1.00
9885;DHT22;4981;50.966;4.842;2023-10-08T06:50:47;15.00;1.00
9885;DHT22;4981;50.966;4.842;2023-10-08T06:53:15;15.00;1.00
9885;DHT22;4981;50.966;4.842;2023-10-08T06:55:45;15.00;1.00
9885;DHT22;4981;50.966;4.842;2023-10-08T06:58:13;15.00;1.00
9885;DHT22;4981;50.966;4.842;2023-10-08T07:00:42;15.00;1.00
9885;DHT22;4981;50.966;4.842;2023-10-08T07:03:14;15.10;1.00
9885;DHT22;4981;50.966;4.842;2023-10-08T07:05:44;15.10;1.00
9885;DHT22;4981;50.966;4.842;2023-10-08T07:08:21;15.10;1.00
9885;DHT22;4981;50.966;4.842;2023-10-08T07:10:50;15.10;1.00
9885;DHT22;4981;50.966;4.842;2023-10-08T07:13:18;15.20;1.00
9885;DHT22;4981;50.966;4.842;2023-10-08T07:15:48;15.10;1.00
9885;DHT22;4981;50.966;4.842;2023-10-08T07:18:15;15.20;1.00
9885;DHT22;4981;50.966;4.842;2023-10-08T07:20:51;15.20;1.00
9885;DHT22;4981;50.966;4.842;2023-10-08T07:23:20;15.20;1.00
9885;DHT22;4981;50.966;4.842;2023-10-08T07:25:56;15.30;1.00
9885;DHT22;4981;50.966;4.842;2023-10-08T07:28:28;15.30;1.00
9885;DHT22;4981;50.966;4.842;2023-10-08T07:30:55;15.40;1.00
9885;DHT22;4981;50.966;4.842;2023-10-08T07:33:23;15.40;1.00
9885;DHT22;4981;50.966;4.842;2023-10-08T07:36:02;15.40;1.00
9885;DHT22;4981;50.966;4.842;2023-10-08T07:38:37;15.40;1.00
9885;DHT22;4981;50.966;4.842;2023-10-08T07:41:06;15.50;1.00
9885;DHT22;4981;50.966;4.842;2023-10-08T07:43:33;15.50;1.00
9885;DHT22;4981;50.966;4.842;2023-10-08T07:46:00;15.60;1.00
9885;DHT22;4981;50.966;4.842;2023-10-08T07:48:27;15.70;1.00
9885;DHT22;4981;50.966;4.842;2023-10-08T07:50:56;15.80;1.00
9885;DHT22;4981;50.966;4.842;2023-10-08T07:53:24;15.70;1.00
9885;DHT22;4981;50.966;4.842;2023-10-08T07:56:03;15.80;1.00
9885;DHT22;4981;50.966;4.842;2023-10-08T07:58:33;15.80;1.00
9885;DHT22;4981;50.966;4.842;2023-10-08T08:01:03;15.90;1.00
9885;DHT22;4981;50.966;4.842;2023-10-08T08:03:32;16.00;1.00
9885;DHT22;4981;50.966;4.842;2023-10-08T08:06:00;16.10;1.00
9885;DHT22;4981;50.966;4.842;2023-10-08T08:08:27;16.10;1.00
9885;DHT22;4981;50.966;4.842;2023-10-08T08:10:54;16.10;1.00
9885;DHT22;4981;50.966;4.842;2023-10-08T08:13:24;16.20;1.00
9885;DHT22;4981;50.966;4.842;2023-10-08T08:15:55;16.20;1.00
9885;DHT22;4981;50.966;4.842;2023-10-08T08:18:25;16.20;1.00
9885;DHT22;4981;50.966;4.842;2023-10-08T08:21:01;16.30;1.00
9885;DHT22;4981;50.966;4.842;2023-10-08T08:23:29;16.30;1.00
9885;DHT22;4981;50.966;4.842;2023-10-08T08:25:57;16.30;1.00
9885;DHT22;4981;50.966;4.842;2023-10-08T08:28:37;16.30;1.00
9885;DHT22;4981;50.966;4.842;2023-10-08T08:31:06;16.40;1.00
9885;DHT22;4981;50.966;4.842;2023-10-08T08:33:42;16.40;1.00
9885;DHT22;4981;50.966;4.842;2023-10-08T08:36:28;16.40;1.00
9885;DHT22;4981;50.966;4.842;2023-10-08T08:38:57;16.00;1.00
9885;DHT22;4981;50.966;4.842;2023-10-08T08:41:24;16.50;1.00
9885;DHT22;4981;50.966;4.842;2023-10-08T08:43:52;16.50;1.00
9885;DHT22;4981;50.966;4.842;2023-10-08T08:46:30;16.60;1.00
9885;DHT22;4981;50.966;4.842;2023-10-08T08:49:01;16.70;1.00
9885;DHT22;4981;50.966;4.842;2023-10-08T08:51:29;16.80;1.00
9885;DHT22;4981;50.966;4.842;2023-10-08T08:53:56;16.90;1.00
9885;DHT22;4981;50.966;4.842;2023-10-08T08:56:26;16.90;1.00
9885;DHT22;4981;50.966;4.842;2023-10-08T08:58:55;17.00;1.00
9885;DHT22;4981;50.966;4.842;2023-10-08T09:01:23;17.10;1.00
9885;DHT22;4981;50.966;4.842;2023-10-08T09:03:51;17.10;1.00
9885;DHT22;4981;50.966;4.842;2023-10-08T09:06:18;17.10;1.00
9885;DHT22;4981;50.966;4.842;2023-10-08T09:08:47;17.20;1.00
9885;DHT22;4981;50.966;4.842;2023-10-08T09:11:16;17.20;1.00
9885;DHT22;4981;50.966;4.842;2023-10-08T09:13:43;17.30;1.00
9885;DHT22;4981;50.966;4.842;2023-10-08T09:16:13;17.40;1.00
9885;DHT22;4981;50.966;4.842;2023-10-08T09:18:42;17.40;1.00
9885;DHT22;4981;50.966;4.842;2023-10-08T09:21:14;17.50;1.00
9885;DHT22;4981;50.966;4.842;2023-10-08T09:23:46;17.60;1.00
9885;DHT22;4981;50.966;4.842;2023-10-08T09:26:17;17.60;1.00
9885;DHT22;4981;50.966;4.842;2023-10-08T09:28:46;17.60;1.00
9885;DHT22;4981;50.966;4.842;2023-10-08T09:31:14;17.60;1.00
9885;DHT22;4981;50.966;4.842;2023-10-08T09:33:43;17.70;1.00
9885;DHT22;4981;50.966;4.842;2023-10-08T09:36:12;17.80;1.00
9885;DHT22;4981;50.966;4.842;2023-10-08T09:38:45;17.90;1.00
9885;DHT22;4981;50.966;4.842;2023-10-08T09:41:14;18.20;1.00
9885;DHT22;4981;50.966;4.842;2023-10-08T09:43:41;18.00;1.00
9885;DHT22;4981;50.966;4.842;2023-10-08T09:46:16;18.00;1.00
9885;DHT22;4981;50.966;4.842;2023-10-08T09:48:51;18.10;1.00
9885;DHT22;4981;50.966;4.842;2023-10-08T09:51:20;18.10;1.00
9885;DHT22;4981;50.966;4.842;2023-10-08T09:53:52;18.30;1.00
9885;DHT22;4981;50.966;4.842;2023-10-08T09:56:20;18.40;1.00
9885;DHT22;4981;50.966;4.842;2023-10-08T09:58:48;18.30;1.00
9885;DHT22;4981;50.966;4.842;2023-10-08T10:01:18;18.40;1.00
9885;DHT22;4981;50.966;4.842;2023-10-08T10:03:45;18.40;1.00
9885;DHT22;4981;50.966;4.842;2023-10-08T10:06:13;18.60;1.00
9885;DHT22;4981;50.966;4.842;2023-10-08T10:08:43;18.40;1.00
9885;DHT22;4981;50.966;4.842;2023-10-08T10:11:11;18.60;1.00
9885;DHT22;4981;50.966;4.842;2023-10-08T10:13:42;18.60;1.00
9885;DHT22;4981;50.966;4.842;2023-10-08T10:16:10;18.80;1.00
9885;DHT22;4981;50.966;4.842;2023-10-08T10:18:39;18.80;1.00
9885;DHT22;4981;50.966;4.842;2023-10-08T10:21:27;18.90;1.00
9885;DHT22;4981;50.966;4.842;2023-10-08T10:23:56;19.00;1.00
9885;DHT22;4981;50.966;4.842;2023-10-08T10:26:26;19.00;1.00
9885;DHT22;4981;50.966;4.842;2023-10-08T10:29:19;19.00;1.00
9885;DHT22;4981;50.966;4.842;2023-10-08T10:31:48;19.10;1.00
9885;DHT22;4981;50.966;4.842;2023-10-08T10:34:20;19.10;1.00
9885;DHT22;4981;50.966;4.842;2023-10-08T10:36:48;19.20;1.00
9885;DHT22;4981;50.966;4.842;2023-10-08T10:39:18;19.20;1.00
9885;DHT22;4981;50.966;4.842;2023-10-08T10:41:53;19.20;1.00
9885;DHT22;4981;50.966;4.842;2023-10-08T10:44:23;19.20;1.00
9885;DHT22;4981;50.966;4.842;2023-10-08T10:46:50;19.30;1.00
9885;DHT22;4981;50.966;4.842;2023-10-08T10:49:18;19.30;1.00
9885;DHT22;4981;50.966;4.842;2023-10-08T10:51:48;19.30;1.00
9885;DHT22;4981;50.966;4.842;2023-10-08T10:54:24;19.40;1.00
9885;DHT22;4981;50.966;4.842;2023-10-08T10:56:51;19.50;1.00
9885;DHT22;4981;50.966;4.842;2023-10-08T10:59:29;19.40;1.00
9885;DHT22;4981;50.966;4.842;2023-10-08T11:02:03;19.70;1.00
9885;DHT22;4981;50.966;4.842;2023-10-08T11:04:33;19.90;1.00
9885;DHT22;4981;50.966;4.842;2023-10-08T11:07:13;20.10;1.00
9885;DHT22;4981;50.966;4.842;2023-10-08T11:09:43;20.20;1.00
9885;DHT22;4981;50.966;4.842;2023-10-08T11:12:13;20.30;1.00
9885;DHT22;4981;50.966;4.842;2023-10-08T11:14:46;20.60;1.00
9885;DHT22;4981;50.966;4.842;2023-10-08T11:17:15;20.90;1.00
9885;DHT22;4981;50.966;4.842;2023-10-08T11:19:42;21.10;1.00
9885;DHT22;4981;50.966;4.842;2023-10-08T11:22:12;21.30;1.00
9885;DHT22;4981;50.966;4.842;2023-10-08T11:24:45;21.50;1.00
9885;DHT22;4981;50.966;4.842;2023-10-08T11:27:15;21.70;1.00
9885;DHT22;4981;50.966;4.842;2023-10-08T11:29:43;22.00;1.00
9885;DHT22;4981;50.966;4.842;2023-10-08T11:32:12;22.00;1.00
9885;DHT22;4981;50.966;4.842;2023-10-08T11:34:41;22.20;1.00
9885;DHT22;4981;50.966;4.842;2023-10-08T11:37:11;22.20;1.00
9885;DHT22;4981;50.966;4.842;2023-10-08T11:39:47;22.30;1.00
9885;DHT22;4981;50.966;4.842;2023-10-08T11:42:16;22.60;1.00
9885;DHT22;4981;50.966;4.842;2023-10-08T11:45:06;22.70;1.00
9885;DHT22;4981;50.966;4.842;2023-10-08T11:47:48;23.30;1.00
9885;DHT22;4981;50.966;4.842;2023-10-08T11:50:15;23.60;1.00
9885;DHT22;4981;50.966;4.842;2023-10-08T11:52:45;23.70;1.00
9885;DHT22;4981;50.966;4.842;2023-10-08T11:55:13;23.80;1.00
9885;DHT22;4981;50.966;4.842;2023-10-08T11:57:45;24.00;1.00
9885;DHT22;4981;50.966;4.842;2023-10-08T12:00:15;24.30;1.00
9885;DHT22;4981;50.966;4.842;2023-10-08T12:02:51;24.50;1.00
9885;DHT22;4981;50.966;4.842;2023-10-08T12:05:20;24.80;1.00
9885;DHT22;4981;50.966;4.842;2023-10-08T12:07:49;24.80;1.00
9885;DHT22;4981;50.966;4.842;2023-10-08T12:10:19;25.10;1.00
9885;DHT22;4981;50.966;4.842;2023-10-08T12:12:49;25.00;1.00
9885;DHT22;4981;50.966;4.842;2023-10-08T12:15:18;25.00;1.00
9885;DHT22;4981;50.966;4.842;2023-10-08T12:17:50;25.10;1.00
9885;DHT22;4981;50.966;4.842;2023-10-08T12:20:37;25.40;1.00
9885;DHT22;4981;50.966;4.842;2023-10-08T12:23:05;25.00;1.00
9885;DHT22;4981;50.966;4.842;2023-10-08T12:25:37;25.50;1.00
9885;DHT22;4981;50.966;4.842;2023-10-08T12:28:05;26.00;16.20
9885;DHT22;4981;50.966;4.842;2023-10-08T12:30:32;26.00;13.10
9885;DHT22;4981;50.966;4.842;2023-10-08T12:33:07;25.70;1.00
9885;DHT22;4981;50.966;4.842;2023-10-08T12:35:39;25.70;1.00
9885;DHT22;4981;50.966;4.842;2023-10-08T12:38:06;25.60;1.00
9885;DHT22;4981;50.966;4.842;2023-10-08T12:40:34;25.20;1.00
9885;DHT22;4981;50.966;4.842;2023-10-08T12:43:14;25.30;1.00
9885;DHT22;4981;50.966;4.842;2023-10-08T12:45:45;25.30;1.00
